Andrus Island, California
Current Conditions -  °F | °C
As of 9:58 AM on Thursday 23 Oct 2014 (Local Time) from KSUU Reporting Station
Few Clouds Few Clouds  
Wind Chill: 20°   Ceiling: Unl
Heat Index: 20°   Visibility: 10mi
Dew Point: 15°   Wind: 10mph
Humidity: 74%   Direction: 240°WSW
Pressure: 30.04"   Gusts: NA
Location:  38.1457°N, 121.624°W
Report Text: KSUU 231658Z AUTO 24009KT 10SM FEW160 20/15 A3004 RMK AO2 SLP179 T01950147 $
Loading
Personal Weather Stations






























Interactive Weather Map
Tropical Storm Tracking
New forecast layout! Learn more

10-Day Weather Forecast

Advertisements
Track Severe Weather on mobile